This is the latest recevied weather packets stored in our database for station/object OE9XVI-6. If no packets are shown the sender has not sent any weather packets the latest 10 day(s).
| Time | Temp. | Humidity | Pressure | Rain* | Wind** | Luminosity | Snow |
|---|---|---|---|---|---|---|---|
| 1778078811 | 10° C | 71% | 1007.8 hPa | 0 mm | - | - | - |
| 1778078211 | 11.11° C | 71% | 1007.6 hPa | 0 mm | - | - | - |
| 1778077611 | 11.11° C | 70% | 1007.6 hPa | 0 mm | - | - | - |
| 1778077011 | 11.67° C | 69% | 1007.6 hPa | 0 mm | - | - | - |
| 1778076411 | 11.11° C | 79% | 1007.9 hPa | 0 mm | - | - | - |
| 1778075811 | 12.22° C | 77% | 1007.6 hPa | 0 mm | - | - | - |
| 1778075211 | 14.44° C | 64% | 1007.4 hPa | 0 mm | - | - | - |
| 1778074611 | 14.44° C | 65% | 1007.4 hPa | 0 mm | - | - | - |
| 1778074011 | 16.11° C | 62% | 1007.3 hPa | 0 mm | - | - | - |
| 1778073411 | 15° C | 66% | 1007.3 hPa | 0 mm | - | - | - |
| 1778072811 | 15° C | 67% | 1007.2 hPa | 0 mm | - | - | - |
| 1778072211 | 15.56° C | 61% | 1007.2 hPa | 0 mm | - | - | - |
| 1778071611 | 15.56° C | 71% | 1007 hPa | 0 mm | - | - | - |
| 1778071011 | 13.33° C | 74% | 1007 hPa | 0 mm | - | - | - |
| 1778070411 | 13.89° C | 70% | 1007.1 hPa | 0 mm | - | - | - |
| 1778069811 | 14.44° C | 72% | 1007 hPa | 0 mm | - | - | - |
| 1778069211 | 13.33° C | 76% | 1006.7 hPa | 0 mm | - | - | - |
| 1778068611 | 12.78° C | 76% | 1007 hPa | 0 mm | - | - | - |
| 1778068011 | 11.11° C | 79% | 1007.2 hPa | 0 mm | - | - | - |
| 1778067411 | 11.11° C | 78% | 1007.2 hPa | 0 mm | - | - | - |
| 1778066811 | 11.67° C | 78% | 1007.1 hPa | 0 mm | - | - | - |
| 1778066211 | 11.67° C | 79% | 1006.7 hPa | 0 mm | - | - | - |
| 1778065611 | 11.67° C | 81% | 1006.9 hPa | 0 mm | - | - | - |
| 1778065011 | 11.67° C | 83% | 1006.7 hPa | 0 mm | - | - | - |
| 1778064411 | 11.67° C | 84% | 1006.7 hPa | 0 mm | - | - | - |
* Rain latest hour (hover to see other rain measurements)
** Current wind speed in m/s (hover to see current wind gust speed)